Time;durP1;ratioP1;P1;durP2;ratioP2;P2;SDS_P1;SDS_P2;PMS_P1;PMS_P2;Temp;Humidity;BMP_temperature;BMP_pressure;BME280_temperature;BME280_humidity;BME280_pressure;Samples;Min_cycle;Max_cycle;Signal;HPM_P1;HPM_P2
2022/07/24 00:01:36;;;;;;;8.27;7.43;;;;;;;16.62;66.49;101669.09;5059054;28;20397;-69
2022/07/24 00:04:03;;;;;;;7.20;6.60;;;;;;;16.78;66.23;101667.31;5059046;28;20166;-68
2022/07/24 00:06:28;;;;;;;7.47;6.87;;;;;;;16.70;66.12;101666.47;5058968;28;20169;-69
2022/07/24 00:08:53;;;;;;;8.80;6.90;;;;;;;16.77;66.11;101662.94;5058956;28;20424;-68
2022/07/24 00:11:19;;;;;;;9.43;6.80;;;;;;;16.56;67.22;101668.22;5060052;28;20219;-69
2022/07/24 00:13:44;;;;;;;8.03;6.80;;;;;;;16.74;66.07;101656.81;5058849;28;20174;-68
2022/07/24 00:16:10;;;;;;;7.47;6.67;;;;;;;16.86;66.14;101648.00;5058920;28;20205;-69
2022/07/24 00:18:35;;;;;;;8.33;7.00;;;;;;;16.93;65.83;101649.78;5059351;28;20197;-68
2022/07/24 00:21:01;;;;;;;8.07;7.27;;;;;;;16.81;66.07;101650.66;5058737;28;20527;-70
2022/07/24 00:23:27;;;;;;;7.93;7.33;;;;;;;16.94;65.84;101648.88;5058601;28;20547;-69
2022/07/24 00:25:53;;;;;;;7.73;6.80;;;;;;;16.78;66.04;101645.41;5058984;28;20158;-69
2022/07/24 00:28:19;;;;;;;8.10;7.00;;;;;;;16.53;67.00;101644.53;5059011;28;20565;-68
2022/07/24 00:30:44;;;;;;;7.60;7.00;;;;;;;16.65;66.63;101641.88;5058783;28;20481;-69
2022/07/24 00:33:10;;;;;;;7.37;6.67;;;;;;;16.86;65.92;101642.72;5059090;28;20173;-69
2022/07/24 00:35:35;;;;;;;8.60;6.77;;;;;;;16.74;66.65;101633.97;5057531;28;20562;-68
2022/07/24 00:38:01;;;;;;;6.80;6.20;;;;;;;16.86;66.03;101635.72;5058392;28;20531;-67
2022/07/24 00:40:26;;;;;;;7.97;7.13;;;;;;;17.06;65.43;101637.44;5059122;28;20176;-69
2022/07/24 00:42:52;;;;;;;7.90;7.20;;;;;;;16.94;65.64;101643.63;5058428;28;20174;-70
2022/07/24 00:45:17;;;;;;;7.97;7.17;;;;;;;16.34;67.61;101644.53;5058162;28;20223;-72
2022/07/24 00:47:43;;;;;;;7.87;7.17;;;;;;;16.22;68.03;101637.50;5058862;28;20165;-70
2022/07/24 00:50:08;;;;;;;8.10;7.23;;;;;;;16.59;67.08;101645.41;5058325;28;20173;-71
2022/07/24 00:52:34;;;;;;;7.37;6.67;;;;;;;16.54;67.45;101648.94;5058072;28;20177;-70
2022/07/24 00:55:00;;;;;;;7.23;6.63;;;;;;;16.61;66.66;101643.63;5058331;28;20650;-69
2022/07/24 00:57:25;;;;;;;9.40;7.10;;;;;;;16.45;67.44;101657.69;5057396;28;20494;-69
2022/07/24 00:59:51;;;;;;;11.30;7.00;;;;;;;16.36;66.86;101657.69;5058733;28;20188;-69
2022/07/24 01:02:16;;;;;;;7.60;6.90;;;;;;;16.14;67.81;101648.03;5058645;28;20253;-70
2022/07/24 01:04:42;;;;;;;7.47;6.60;;;;;;;16.39;66.93;101645.41;5057979;28;20181;-69
2022/07/24 01:07:07;;;;;;;7.63;6.47;;;;;;;16.45;66.90;101653.31;5058030;28;20246;-70
2022/07/24 01:09:33;;;;;;;6.47;5.87;;;;;;;16.64;66.64;101656.81;5058381;28;20165;-72
2022/07/24 01:11:59;;;;;;;7.27;6.67;;;;;;;16.31;67.13;101648.03;5057982;28;20531;-70
2022/07/24 01:14:25;;;;;;;7.00;6.30;;;;;;;16.34;66.96;101657.69;5057890;28;20169;-69
2022/07/24 01:16:51;;;;;;;6.97;6.37;;;;;;;16.10;68.56;101646.28;5058399;28;20461;-69
2022/07/24 01:19:16;;;;;;;7.40;6.73;;;;;;;16.11;68.21;101645.38;5057888;28;20426;-69
2022/07/24 01:21:49;;;;;;;7.17;6.37;;;;;;;16.46;67.56;101647.16;5057825;28;20184;-70
2022/07/24 01:24:15;;;;;;;8.27;6.67;;;;;;;16.22;68.22;101649.78;5057705;28;20197;-71
2022/07/24 01:26:41;;;;;;;7.40;6.70;;;;;;;16.46;67.53;101649.78;5057862;28;20662;-70
2022/07/24 01:29:06;;;;;;;6.33;5.83;;;;;;;16.52;66.90;101641.03;5058058;28;20775;-71
2022/07/24 01:31:31;;;;;;;6.43;5.77;;;;;;;16.38;67.27;101638.38;5058176;28;20169;-69
2022/07/24 01:33:57;;;;;;;6.60;6.00;;;;;;;16.24;67.75;101642.78;5056928;28;20576;-70
2022/07/24 01:36:22;;;;;;;7.17;6.50;;;;;;;16.26;67.93;101646.28;5057626;28;20201;-69
2022/07/24 01:38:48;;;;;;;6.60;6.00;;;;;;;16.22;67.77;101641.91;5058211;28;20189;-70
2022/07/24 01:41:13;;;;;;;7.33;6.50;;;;;;;16.12;67.81;101634.00;5057764;28;20437;-70
2022/07/24 01:43:38;;;;;;;7.43;6.77;;;;;;;16.25;67.27;101636.63;5057428;28;20178;-70
2022/07/24 01:46:04;;;;;;;12.97;7.00;;;;;;;16.23;67.50;101625.25;5058048;28;20161;-69
2022/07/24 01:48:29;;;;;;;6.73;6.10;;;;;;;16.23;67.50;101628.75;5061563;28;20661;-68
2022/07/24 01:50:55;;;;;;;6.37;5.77;;;;;;;16.25;67.50;101632.25;5061785;28;20188;-68
2022/07/24 01:53:20;;;;;;;7.97;6.10;;;;;;;16.19;67.87;101624.34;5061545;28;20229;-70
2022/07/24 01:55:46;;;;;;;7.07;6.37;;;;;;;16.04;68.22;101627.84;5061441;28;20292;-71
2022/07/24 01:58:11;;;;;;;6.83;6.13;;;;;;;16.21;67.64;101632.25;5061535;28;20173;-69
2022/07/24 02:00:36;;;;;;;6.50;5.80;;;;;;;16.13;68.31;101633.13;5061494;28;20178;-69
2022/07/24 02:03:02;;;;;;;6.80;6.17;;;;;;;16.06;68.27;101634.00;5061384;28;20283;-67
2022/07/24 02:05:28;;;;;;;7.10;6.40;;;;;;;15.72;69.21;101630.38;5061440;28;20177;-71
2022/07/24 02:07:59;;;;;;;9.97;6.90;;;;;;;15.87;67.95;101626.94;5061253;28;20170;-69
2022/07/24 02:10:25;;;;;;;7.90;6.20;;;;;;;16.31;67.71;101620.84;5061240;28;20170;-69
2022/07/24 02:12:50;;;;;;;6.70;6.10;;;;;;;16.03;68.00;101618.19;5062601;28;20425;-70
2022/07/24 02:15:15;;;;;;;6.50;5.90;;;;;;;16.06;68.42;101620.84;5061064;28;20184;-69
2022/07/24 02:17:48;;;;;;;7.87;7.17;;;;;;;16.01;68.06;101622.59;5061116;28;20473;-69
2022/07/24 02:20:14;;;;;;;7.73;6.80;;;;;;;16.32;67.37;101622.63;5061349;28;20189;-68
2022/07/24 02:22:39;;;;;;;6.60;6.07;;;;;;;16.10;67.80;101626.97;5061100;28;20431;-68
2022/07/24 02:25:06;;;;;;;6.83;6.23;;;;;;;16.24;67.14;101633.13;5060995;28;20185;-70
2022/07/24 02:27:31;;;;;;;7.10;6.40;;;;;;;16.19;68.04;101634.00;5061428;28;20165;-68
2022/07/24 02:29:57;;;;;;;7.30;6.57;;;;;;;16.03;68.36;101636.59;5060960;28;20431;-69
2022/07/24 02:32:22;;;;;;;6.77;6.07;;;;;;;16.16;67.78;101630.47;5060859;28;20197;-69
2022/07/24 02:34:47;;;;;;;8.27;7.03;;;;;;;16.08;68.04;101628.75;5061032;28;20550;-70
2022/07/24 02:37:13;;;;;;;7.30;6.60;;;;;;;16.06;68.28;101627.84;5060580;28;20530;-69
2022/07/24 02:39:38;;;;;;;7.13;6.43;;;;;;;16.03;68.56;101627.84;5060911;28;20201;-69
2022/07/24 02:42:03;;;;;;;7.17;6.47;;;;;;;16.42;67.22;101624.34;5061395;28;20170;-69
2022/07/24 02:44:29;;;;;;;7.30;6.60;;;;;;;16.55;66.10;101624.34;5060604;28;20274;-69
2022/07/24 02:46:54;;;;;;;7.70;6.30;;;;;;;16.42;66.27;101626.13;5060744;28;20204;-69
2022/07/24 02:49:20;;;;;;;7.77;6.90;;;;;;;16.27;67.62;101627.88;5061122;28;20577;-69
2022/07/24 02:51:45;;;;;;;7.47;6.73;;;;;;;15.95;68.06;101636.63;5060806;28;20185;-68
2022/07/24 02:54:10;;;;;;;7.07;6.30;;;;;;;16.16;67.67;101635.75;5060278;28;20648;-68
2022/07/24 02:56:36;;;;;;;7.43;6.30;;;;;;;16.38;67.19;101640.16;5061092;28;20193;-69
2022/07/24 02:59:02;;;;;;;10.90;7.37;;;;;;;16.11;67.57;101631.38;5059497;28;20490;-69
2022/07/24 03:01:28;;;;;;;7.87;7.07;;;;;;;16.28;67.41;101634.88;5060740;28;20420;-71
2022/07/24 03:03:53;;;;;;;8.70;7.60;;;;;;;16.50;66.90;101632.25;5066305;28;20177;-71
2022/07/24 03:06:18;;;;;;;6.40;5.90;;;;;;;16.45;66.86;101634.91;5061123;28;20209;-71
2022/07/24 03:08:44;;;;;;;7.70;6.90;;;;;;;16.61;65.97;101634.88;5060162;28;20174;-69
2022/07/24 03:11:09;;;;;;;7.40;6.70;;;;;;;16.53;66.23;101631.38;5060626;28;20174;-71
2022/07/24 03:13:34;;;;;;;7.20;6.60;;;;;;;16.44;66.43;101626.97;5060009;28;20203;-70
2022/07/24 03:16:00;;;;;;;10.80;7.17;;;;;;;16.42;66.30;101621.72;5060224;28;20197;-69
2022/07/24 03:18:25;;;;;;;7.70;7.00;;;;;;;16.16;67.40;101621.72;5060497;28;20162;-68
2022/07/24 03:20:50;;;;;;;8.30;7.30;;;;;;;16.40;66.33;101623.50;5059947;28;20165;-69
2022/07/24 03:23:16;;;;;;;7.80;7.10;;;;;;;16.60;66.34;101622.59;5059937;28;20253;-69
2022/07/24 03:25:41;;;;;;;9.10;6.90;;;;;;;16.66;66.01;101620.81;5060094;28;20181;-69
2022/07/24 03:28:07;;;;;;;9.30;7.70;;;;;;;16.49;67.12;101614.69;5061237;28;20165;-68
2022/07/24 03:30:33;;;;;;;8.40;7.33;;;;;;;16.45;67.06;101632.28;5060354;28;20511;-68
2022/07/24 03:32:58;;;;;;;8.13;7.33;;;;;;;16.64;66.75;101625.22;5060320;28;20473;-67
2022/07/24 03:35:23;;;;;;;8.33;7.63;;;;;;;16.75;66.15;101624.31;5059542;28;20523;-68
2022/07/24 03:37:49;;;;;;;7.50;6.60;;;;;;;16.57;65.56;101619.97;5059706;28;20416;-67
2022/07/24 03:40:14;;;;;;;7.30;6.70;;;;;;;16.69;66.06;101627.84;5060066;28;20165;-68
2022/07/24 03:42:39;;;;;;;6.90;6.30;;;;;;;16.82;65.41;101628.72;5059416;28;20192;-67
2022/07/24 03:45:05;;;;;;;7.67;6.83;;;;;;;16.77;65.78;101626.06;5059446;28;20199;-67
2022/07/24 03:47:31;;;;;;;6.97;6.27;;;;;;;17.07;64.74;101640.06;5059701;28;20191;-67
2022/07/24 03:49:56;;;;;;;7.10;6.40;;;;;;;17.07;64.29;101637.44;5059413;28;20395;-67
2022/07/24 03:52:22;;;;;;;7.80;7.10;;;;;;;17.23;64.28;101626.88;5059351;28;20477;-68
2022/07/24 03:54:47;;;;;;;8.10;6.47;;;;;;;17.19;64.68;101625.13;5058970;28;20257;-68
2022/07/24 03:57:12;;;;;;;6.60;6.00;;;;;;;16.81;65.13;101624.31;5059358;28;20220;-68
2022/07/24 03:59:38;;;;;;;6.93;6.07;;;;;;;16.97;64.79;101612.88;5059568;28;20228;-68
2022/07/24 04:02:03;;;;;;;6.97;6.37;;;;;;;17.07;64.71;101616.38;5059105;28;20535;-68
2022/07/24 04:04:29;;;;;;;7.80;6.30;;;;;;;16.47;65.51;101624.38;5058958;28;20562;-68
2022/07/24 04:06:54;;;;;;;7.27;6.10;;;;;;;17.76;62.58;101617.78;5059359;28;20168;-68
2022/07/24 04:09:19;;;;;;;8.50;5.93;;;;;;;18.88;58.78;101607.25;5058877;28;20178;-68
2022/07/24 04:11:46;;;;;;;5.80;5.30;;;;;;;18.95;58.26;101615.97;5058977;28;20193;-68
2022/07/24 04:14:11;;;;;;;6.07;5.20;;;;;;;20.22;54.63;101607.19;5059111;28;20161;-68
2022/07/24 04:16:37;;;;;;;9.23;5.73;;;;;;;19.98;53.95;101603.16;5058582;28;20507;-68
2022/07/24 04:19:03;;;;;;;5.97;5.47;;;;;;;20.93;51.93;101599.75;5058676;28;20174;-68
2022/07/24 04:21:28;;;;;;;5.83;5.33;;;;;;;21.02;50.95;101599.56;5059156;28;20170;-68
2022/07/24 04:23:53;;;;;;;5.63;5.13;;;;;;;22.02;49.45;101604.47;5058582;28;20185;-68
2022/07/24 04:26:19;;;;;;;4.73;4.33;;;;;;;21.79;48.93;101600.56;5058686;28;20207;-69
2022/07/24 04:28:44;;;;;;;5.00;4.60;;;;;;;22.36;47.38;101599.19;5059042;28;20192;-68
2022/07/24 04:31:10;;;;;;;4.37;4.03;;;;;;;22.84;46.17;101592.59;5058590;28;20264;-68
2022/07/24 04:33:36;;;;;;;5.20;4.70;;;;;;;21.63;48.41;101607.16;5058483;28;20169;-68
2022/07/24 04:36:03;;;;;;;4.63;4.23;;;;;;;22.43;46.98;101597.25;5058717;28;20448;-68
2022/07/24 04:38:28;;;;;;;4.50;4.10;;;;;;;21.42;49.31;101601.38;5058494;28;20177;-67
2022/07/24 04:40:54;;;;;;;4.63;4.33;;;;;;;21.30;49.28;101599.00;5058455;28;20411;-68
2022/07/24 04:43:19;;;;;;;4.87;4.47;;;;;;;20.22;51.53;101606.31;5058735;28;20507;-67
2022/07/24 04:45:44;;;;;;;4.77;4.10;;;;;;;22.72;46.25;101592.94;5058212;28;20260;-69
2022/07/24 04:48:10;;;;;;;5.00;4.50;;;;;;;21.15;50.06;101611.66;5058271;28;20551;-69
2022/07/24 04:50:35;;;;;;;6.33;4.43;;;;;;;21.02;49.44;101611.03;5058465;28;20442;-68
2022/07/24 04:53:00;;;;;;;4.23;3.87;;;;;;;21.84;47.83;101603.13;5058099;28;20264;-68
2022/07/24 04:55:26;;;;;;;5.03;4.60;;;;;;;23.32;44.22;101601.03;5058001;28;20547;-67
2022/07/24 04:57:51;;;;;;;4.50;4.10;;;;;;;22.57;45.98;101603.97;5058569;28;20231;-67
2022/07/24 05:00:16;;;;;;;4.27;3.90;;;;;;;22.63;45.41;101598.50;5058169;28;20173;-68
2022/07/24 05:02:42;;;;;;;4.20;3.90;;;;;;;21.33;48.45;101594.47;5057921;28;20216;-70
2022/07/24 05:05:07;;;;;;;4.40;3.80;;;;;;;21.29;47.98;101605.22;5058167;28;20178;-68
2022/07/24 05:07:33;;;;;;;4.67;4.17;;;;;;;21.50;48.00;101602.09;5058558;28;20480;-69
2022/07/24 05:09:58;;;;;;;5.03;4.10;;;;;;;22.48;45.71;101597.13;5058091;28;20184;-69
2022/07/24 05:12:24;;;;;;;3.93;3.63;;;;;;;21.70;47.13;101599.00;5058560;28;20173;-68
2022/07/24 05:14:50;;;;;;;4.20;3.80;;;;;;;22.40;46.13;101596.47;5057917;28;20506;-68
2022/07/24 05:17:15;;;;;;;5.40;3.73;;;;;;;23.58;43.25;101596.69;5057858;28;20492;-68
2022/07/24 05:19:41;;;;;;;4.43;4.03;;;;;;;23.12;44.26;101602.44;5058251;28;20169;-68
2022/07/24 05:22:06;;;;;;;4.20;3.80;;;;;;;23.91;42.72;101599.22;5057353;28;20169;-69
2022/07/24 05:24:32;;;;;;;4.00;3.70;;;;;;;24.66;40.87;101603.81;5057747;28;20182;-69
2022/07/24 05:26:57;;;;;;;3.73;3.30;;;;;;;24.58;41.10;101601.38;5058448;28;20173;-70
2022/07/24 05:29:22;;;;;;;4.20;3.80;;;;;;;24.78;40.68;101592.69;5057891;28;20177;-69
2022/07/24 05:31:49;;;;;;;3.80;3.40;;;;;;;24.13;40.88;101589.59;5057852;28;20256;-69
2022/07/24 05:34:14;;;;;;;4.10;3.80;;;;;;;22.58;44.20;101592.44;5058055;28;20220;-70
2022/07/24 05:36:39;;;;;;;3.90;3.60;;;;;;;23.45;42.59;101591.75;5057978;28;20853;-69
2022/07/24 05:39:05;;;;;;;5.00;4.00;;;;;;;24.97;39.96;101589.34;5057810;28;20268;-69
2022/07/24 05:41:30;;;;;;;3.70;3.20;;;;;;;24.07;41.28;101581.78;5058161;28;20227;-68
2022/07/24 05:43:56;;;;;;;4.60;3.40;;;;;;;24.59;41.36;101591.59;5057446;28;20173;-69
2022/07/24 05:46:21;;;;;;;4.37;3.50;;;;;;;22.23;44.94;101596.88;5057639;28;20178;-69
2022/07/24 05:48:47;;;;;;;3.97;3.50;;;;;;;24.19;41.90;101589.41;5058006;28;20515;-68
2022/07/24 05:51:12;;;;;;;3.57;3.27;;;;;;;22.64;44.53;101592.28;5057691;28;20178;-68
2022/07/24 05:53:37;;;;;;;3.43;3.13;;;;;;;25.00;40.32;101581.22;5057276;28;20221;-69
2022/07/24 05:56:04;;;;;;;5.40;3.40;;;;;;;26.25;37.89;101584.31;5057876;28;20516;-69
2022/07/24 05:58:29;;;;;;;4.03;3.70;;;;;;;25.71;39.08;101579.38;5057363;28;20209;-68
2022/07/24 06:00:54;;;;;;;3.70;3.40;;;;;;;24.31;40.85;101587.22;5057441;28;20459;-69
2022/07/24 06:03:20;;;;;;;3.70;3.40;;;;;;;25.22;39.55;101583.94;5057799;28;20239;-69
2022/07/24 06:05:45;;;;;;;3.63;3.33;;;;;;;25.77;38.39;101578.25;5057417;28;20193;-68
2022/07/24 06:08:11;;;;;;;4.60;3.47;;;;;;;26.81;36.97;101573.88;5056723;28;20177;-69
2022/07/24 06:10:36;;;;;;;3.73;3.30;;;;;;;25.94;38.01;101577.56;5058119;28;20248;-70
2022/07/24 06:13:02;;;;;;;3.60;3.30;;;;;;;26.92;37.30;101573.41;5057614;28;20539;-69
2022/07/24 06:15:28;;;;;;;3.93;3.63;;;;;;;27.84;35.01;101563.63;5057521;28;20173;-71
2022/07/24 06:17:54;;;;;;;3.60;3.30;;;;;;;25.57;38.91;101583.53;5057886;28;20197;-70
2022/07/24 06:20:19;;;;;;;3.70;3.20;;;;;;;25.49;40.16;101575.81;5057654;28;20420;-69
2022/07/24 06:22:45;;;;;;;3.53;3.23;;;;;;;26.43;38.01;101565.75;5057568;28;20185;-70
2022/07/24 06:25:10;;;;;;;3.53;3.23;;;;;;;26.87;37.45;101566.44;5057744;28;20170;-68
2022/07/24 06:27:46;;;;;;;3.30;3.10;;;;;;;25.85;38.04;101570.78;5057280;28;20253;-69
2022/07/24 06:30:16;;;;;;;3.40;3.10;;;;;;;25.78;38.19;101566.66;5057325;28;20197;-71
2022/07/24 06:32:42;;;;;;;5.90;3.23;;;;;;;26.04;38.91;101559.38;5057333;28;20423;-70
2022/07/24 06:35:07;;;;;;;3.37;3.07;;;;;;;27.44;36.10;101552.22;5060325;28;20412;-70
2022/07/24 06:37:33;;;;;;;3.63;3.00;;;;;;;27.98;34.97;101543.31;5061115;28;20454;-70
2022/07/24 06:39:58;;;;;;;3.30;3.00;;;;;;;26.17;38.67;101563.25;5060096;28;20178;-70
2022/07/24 06:42:24;;;;;;;3.50;3.20;;;;;;;25.86;38.68;101555.66;5060786;28;20193;-70
2022/07/24 06:44:49;;;;;;;3.43;3.13;;;;;;;25.00;41.06;101552.75;5061219;28;20176;-70
2022/07/24 06:47:15;;;;;;;3.10;2.80;;;;;;;27.06;37.61;101547.72;5060799;28;20181;-68
2022/07/24 06:49:40;;;;;;;3.23;3.03;;;;;;;26.73;37.41;101547.47;5060622;28;20252;-69
2022/07/24 06:52:05;;;;;;;3.10;2.90;;;;;;;26.81;37.85;101541.78;5060837;28;20196;-70
2022/07/24 06:54:31;;;;;;;3.07;2.77;;;;;;;27.55;36.32;101541.84;5060138;28;20340;-69
2022/07/24 06:56:56;;;;;;;4.60;3.00;;;;;;;29.67;32.90;101537.81;5060292;28;20216;-71
2022/07/24 06:59:21;;;;;;;3.40;3.10;;;;;;;26.46;37.85;101537.03;5060583;28;20554;-69
2022/07/24 07:01:47;;;;;;;5.73;3.00;;;;;;;28.42;35.06;101537.50;5060317;28;20173;-69
2022/07/24 07:04:12;;;;;;;3.43;3.20;;;;;;;29.90;32.42;101536.47;5059929;28;20184;-70
2022/07/24 07:06:38;;;;;;;3.50;3.20;;;;;;;28.95;34.23;101542.75;5060276;28;20589;-72
2022/07/24 07:09:03;;;;;;;3.33;3.03;;;;;;;30.47;31.43;101530.38;5060371;28;20199;-69
2022/07/24 07:11:28;;;;;;;4.27;3.10;;;;;;;29.26;33.27;101544.59;5060150;28;20177;-71
2022/07/24 07:13:54;;;;;;;4.63;3.00;;;;;;;28.80;33.72;101548.00;5060167;28;20169;-71
2022/07/24 07:16:19;;;;;;;3.20;2.90;;;;;;;29.13;33.98;101543.53;5059950;28;20212;-71
2022/07/24 07:18:44;;;;;;;3.50;3.20;;;;;;;30.44;32.03;101541.28;5060019;28;20173;-71
2022/07/24 07:21:10;;;;;;;3.50;3.20;;;;;;;28.99;34.01;101544.31;5060522;28;20519;-70
2022/07/24 07:23:35;;;;;;;3.37;3.07;;;;;;;28.78;34.55;101546.34;5059655;28;20173;-70
2022/07/24 07:26:01;;;;;;;3.30;3.00;;;;;;;30.83;31.39;101533.53;5059811;28;20587;-70
2022/07/24 07:28:26;;;;;;;3.03;2.73;;;;;;;29.19;34.30;101545.88;5060376;28;20176;-70
2022/07/24 07:30:52;;;;;;;3.40;3.07;;;;;;;28.67;34.77;101538.88;5059705;28;20169;-70
2022/07/24 07:33:17;;;;;;;3.40;3.10;;;;;;;28.53;35.53;101551.19;5059668;28;20180;-70
2022/07/24 07:35:43;;;;;;;3.20;2.90;;;;;;;30.55;32.15;101538.84;5059935;28;20166;-70
2022/07/24 07:38:08;;;;;;;3.63;3.33;;;;;;;28.63;34.90;101556.94;5059627;28;20177;-71
2022/07/24 07:40:33;;;;;;;3.80;3.40;;;;;;;30.34;32.09;101542.81;5059600;28;20177;-70
2022/07/24 07:42:59;;;;;;;4.47;3.10;;;;;;;28.99;33.97;101547.00;5059914;28;20174;-69
2022/07/24 07:45:24;;;;;;;3.23;2.90;;;;;;;30.85;31.66;101542.38;5058889;28;20181;-69
2022/07/24 07:47:49;;;;;;;4.40;3.57;;;;;;;29.85;33.01;101552.88;5059364;28;20245;-69
2022/07/24 07:50:15;;;;;;;3.77;3.37;;;;;;;29.30;33.94;101542.63;5059800;28;20456;-69
2022/07/24 07:52:40;;;;;;;3.83;3.30;;;;;;;29.49;34.87;101548.66;5059141;28;20220;-69
2022/07/24 07:55:06;;;;;;;3.50;3.30;;;;;;;28.00;36.08;101539.66;5059136;28;20170;-69
2022/07/24 07:57:32;;;;;;;3.30;3.03;;;;;;;30.88;32.08;101537.66;5059383;28;20193;-69
2022/07/24 07:59:57;;;;;;;3.23;3.00;;;;;;;28.84;35.05;101543.34;5059122;28;20477;-69
2022/07/24 08:02:22;;;;;;;3.67;3.10;;;;;;;31.19;31.67;101530.34;5059228;28;20158;-69
2022/07/24 08:04:48;;;;;;;3.70;2.83;;;;;;;29.77;33.41;101535.44;5059179;28;20174;-70
2022/07/24 08:07:13;;;;;;;3.27;2.97;;;;;;;30.69;31.80;101526.34;5058938;28;20638;-71
2022/07/24 08:09:39;;;;;;;2.90;2.70;;;;;;;30.96;31.34;101522.84;5059234;28;20173;-71
2022/07/24 08:12:05;;;;;;;3.60;3.00;;;;;;;27.74;36.25;101540.94;5059386;28;20162;-71
2022/07/24 08:14:30;;;;;;;5.23;2.80;;;;;;;29.20;34.43;101528.78;5059097;28;20177;-70
2022/07/24 08:16:56;;;;;;;3.50;3.07;;;;;;;30.42;32.81;101529.75;5058815;28;20224;-70
2022/07/24 08:19:21;;;;;;;4.80;3.47;;;;;;;31.10;31.39;101513.91;5058546;28;20543;-70
2022/07/24 08:21:47;;;;;;;3.27;2.97;;;;;;;32.21;30.14;101520.00;5058626;28;20170;-69
2022/07/24 08:24:12;;;;;;;3.40;3.10;;;;;;;31.82;30.13;101522.59;5058402;28;20173;-72
2022/07/24 08:26:38;;;;;;;2.90;2.70;;;;;;;30.88;31.29;101529.59;5059163;28;20217;-74
2022/07/24 08:29:04;;;;;;;3.00;2.80;;;;;;;33.03;29.01;101514.16;5058566;28;20180;-72
2022/07/24 08:31:29;;;;;;;3.07;2.80;;;;;;;32.09;30.02;101516.28;5058403;28;20170;-73
2022/07/24 08:33:54;;;;;;;3.70;3.03;;;;;;;30.72;32.28;101516.22;5058815;28;20166;-73
2022/07/24 08:36:20;;;;;;;3.47;3.17;;;;;;;32.26;29.50;101504.34;5058252;28;20207;-74
2022/07/24 08:38:45;;;;;;;3.07;2.87;;;;;;;31.28;31.48;101512.69;5058303;28;20531;-73
2022/07/24 08:41:12;;;;;;;3.60;2.97;;;;;;;31.02;31.49;101506.28;5058747;28;20172;-74
2022/07/24 08:43:37;;;;;;;3.57;3.27;;;;;;;32.71;29.21;101495.81;5057976;28;20184;-71
2022/07/24 08:46:04;;;;;;;3.47;3.17;;;;;;;33.78;27.98;101510.44;5058298;28;20695;-72
2022/07/24 08:48:29;;;;;;;3.10;2.90;;;;;;;31.60;30.60;101498.94;5057976;28;20165;-70
2022/07/24 08:50:55;;;;;;;3.80;3.30;;;;;;;28.75;34.68;101514.31;5057312;28;20464;-70
2022/07/24 08:53:22;;;;;;;3.47;3.17;;;;;;;28.58;35.85;101505.34;5057983;28;20217;-70
2022/07/24 08:55:47;;;;;;;3.60;3.30;;;;;;;31.43;31.53;101500.03;5058072;28;20400;-71
2022/07/24 08:58:13;;;;;;;3.33;3.07;;;;;;;31.26;31.24;101502.97;5057775;28;20416;-70
2022/07/24 09:00:38;;;;;;;3.20;3.00;;;;;;;29.97;33.90;101515.47;5058110;28;20170;-70
2022/07/24 09:03:04;;;;;;;3.90;3.60;;;;;;;28.87;35.14;101511.81;5058458;28;20442;-70
2022/07/24 09:05:32;;;;;;;3.60;3.30;;;;;;;29.27;35.11;101523.97;5057886;28;20448;-71
2022/07/24 09:08:08;;;;;;;3.07;2.83;;;;;;;33.08;28.95;101496.66;5058045;28;20586;-70
2022/07/24 09:10:33;;;;;;;3.13;2.90;;;;;;;33.95;27.79;101498.31;5058157;28;20422;-72
2022/07/24 09:13:11;;;;;;;3.27;2.97;;;;;;;33.52;27.57;101493.47;5058000;28;20689;-70
2022/07/24 09:15:45;;;;;;;3.20;3.00;;;;;;;33.33;27.95;101494.00;5057627;28;20255;-71
2022/07/24 09:18:28;;;;;;;5.13;2.87;;;;;;;33.37;28.34;101484.69;5057106;28;20712;-70
2022/07/24 09:20:54;;;;;;;3.40;3.20;;;;;;;32.27;29.93;101486.31;5057789;28;20407;-70
2022/07/24 09:23:20;;;;;;;6.43;3.27;;;;;;;33.42;28.32;101477.06;5057866;28;20710;-70
2022/07/24 09:25:54;;;;;;;3.27;3.07;;;;;;;30.09;32.95;101500.41;5057749;28;20400;-70
2022/07/24 09:28:20;;;;;;;3.50;3.20;;;;;;;29.64;33.91;101503.06;5057854;28;20299;-70
2022/07/24 09:30:48;;;;;;;3.60;3.30;;;;;;;28.97;34.66;101500.56;5057107;28;20416;-70
2022/07/24 09:33:13;;;;;;;3.60;3.30;;;;;;;30.09;33.40;101492.34;5057650;28;20419;-70
2022/07/24 09:35:43;;;;;;;3.63;3.20;;;;;;;33.77;28.06;101480.78;5057438;28;20405;-70
2022/07/24 09:38:11;;;;;;;5.87;3.60;;;;;;;33.20;28.25;101489.47;5058134;28;20268;-71
2022/07/24 09:40:37;;;;;;;3.73;3.53;;;;;;;33.91;27.69;101484.16;5057829;28;20415;-70
2022/07/24 09:43:13;;;;;;;5.33;3.53;;;;;;;32.40;28.82;101489.88;5057625;28;20420;-70
2022/07/24 09:46:05;;;;;;;3.30;3.07;;;;;;;31.91;30.09;101478.81;5057282;28;20424;-70
2022/07/24 09:48:33;;;;;;;4.17;3.60;;;;;;;33.96;27.25;101475.66;5057134;28;20478;-71
2022/07/24 09:51:09;;;;;;;3.80;3.50;;;;;;;30.66;30.66;101483.47;5057596;28;20407;-71
2022/07/24 09:53:35;;;;;;;4.43;3.90;;;;;;;31.48;29.93;101481.72;5056496;28;20467;-70
2022/07/24 09:56:02;;;;;;;4.23;3.83;;;;;;;31.07;30.47;101478.13;5057440;28;20462;-70
2022/07/24 09:58:28;;;;;;;4.50;4.20;;;;;;;29.76;32.56;101474.59;5057503;28;20252;-71
2022/07/24 10:00:55;;;;;;;4.60;4.20;;;;;;;32.46;28.93;101466.97;5057752;28;20873;-71
2022/07/24 10:03:24;;;;;;;4.63;4.23;;;;;;;33.84;26.96;101466.69;5056556;28;20840;-70
2022/07/24 10:05:54;;;;;;;4.27;3.97;;;;;;;32.61;28.23;101468.59;5057287;28;20447;-73
2022/07/24 10:08:21;;;;;;;5.10;4.70;;;;;;;31.90;29.10;101470.84;5059122;28;20443;-73
2022/07/24 10:10:47;;;;;;;5.17;4.77;;;;;;;31.06;30.38;101470.16;5060408;28;20450;-73
2022/07/24 10:13:12;;;;;;;4.30;4.00;;;;;;;31.70;30.19;101467.72;5060898;28;20427;-72
2022/07/24 10:15:54;;;;;;;5.13;4.73;;;;;;;32.07;29.29;101464.28;5060268;28;20446;-74
2022/07/24 10:18:21;;;;;;;5.77;4.70;;;;;;;32.76;28.49;101463.94;5061016;28;20212;-72
2022/07/24 10:20:48;;;;;;;5.50;4.70;;;;;;;33.17;27.59;101457.28;5061027;28;20412;-70
2022/07/24 10:23:22;;;;;;;5.23;4.80;;;;;;;33.16;28.28;101452.84;5060888;28;20442;-71
2022/07/24 10:26:06;;;;;;;4.67;4.30;;;;;;;33.53;26.65;101447.41;5060906;28;20419;-70
2022/07/24 10:28:36;;;;;;;4.93;4.50;;;;;;;33.33;27.15;101439.97;5060957;28;20423;-70
2022/07/24 10:31:04;;;;;;;5.23;4.40;;;;;;;33.49;27.39;101445.03;5061030;28;20419;-71
2022/07/24 10:33:29;;;;;;;5.30;4.83;;;;;;;32.09;28.51;101448.84;5059976;28;20793;-70
2022/07/24 10:35:58;;;;;;;4.80;4.40;;;;;;;33.27;27.65;101443.13;5060956;28;20469;-73
2022/07/24 10:38:30;;;;;;;6.27;4.77;;;;;;;33.47;26.31;101438.91;5059950;28;20170;-73
2022/07/24 10:41:02;;;;;;;6.33;4.80;;;;;;;32.83;28.37;101442.75;5059860;28;20444;-74
2022/07/24 10:43:27;;;;;;;4.73;4.37;;;;;;;32.40;28.98;101431.34;5059814;28;20841;-71
2022/07/24 10:45:55;;;;;;;7.63;4.73;;;;;;;33.88;27.28;101430.31;5059674;28;20427;-70
2022/07/24 10:48:21;;;;;;;6.13;5.47;;;;;;;34.13;27.09;101430.22;5060748;28;20415;-71
2022/07/24 10:51:07;;;;;;;4.80;4.37;;;;;;;32.80;28.48;101438.44;5060552;28;20431;-70
2022/07/24 10:53:38;;;;;;;5.70;5.20;;;;;;;34.27;27.43;101426.38;5060134;28;20304;-71
2022/07/24 10:56:15;;;;;;;5.30;4.90;;;;;;;33.50;28.15;101431.41;5060324;28;20452;-71
2022/07/24 10:59:00;;;;;;;4.97;4.60;;;;;;;33.04;27.91;101424.06;5059701;28;20850;-72
2022/07/24 11:01:34;;;;;;;4.60;4.20;;;;;;;33.43;28.47;101429.31;5060271;28;20410;-71
2022/07/24 11:04:23;;;;;;;5.37;4.87;;;;;;;32.74;28.92;101423.53;5059533;28;20416;-74
2022/07/24 11:06:48;;;;;;;5.07;4.63;;;;;;;33.28;27.91;101423.22;5059952;28;20523;-73
2022/07/24 11:09:15;;;;;;;6.30;5.47;;;;;;;32.50;28.34;101415.38;5060141;28;20543;-74
2022/07/24 11:11:51;;;;;;;5.60;4.80;;;;;;;33.52;28.03;101404.28;5060112;28;20178;-71
2022/07/24 11:14:20;;;;;;;5.13;4.73;;;;;;;34.39;27.05;101401.06;5060078;28;20465;-71
2022/07/24 11:16:45;;;;;;;5.63;5.00;;;;;;;34.04;26.80;101402.03;5059231;28;20565;-70
2022/07/24 11:19:10;;;;;;;5.73;5.23;;;;;;;33.29;28.18;101406.00;5059177;28;20507;-70
2022/07/24 11:21:38;;;;;;;5.63;5.20;;;;;;;32.60;28.83;101409.28;5060129;28;20181;-71